CheckWX is a tool to help pilots better visualize weather data.  It is not intended as a substitute for an official pre-flight weather briefing.

02:53:09 UTC

LSZL TAF
Locarno Airport
Locarno, Switzerland
TAF LSZL 230225Z 2303/2312 VRB02KT 8000 DZ FEW030 BKN050 TEMPO 2303/2312 4000 RA

Apr-23@
03:00 UTC

Apr-23 @ 03:00 UTC

Apr-23@
12:00 UTC

Apr-23 @ 12:00 UTC

TAF LSZL 230225Z 2303/2312 VRB02KT 8000 DZ FEW030 BKN050
Wind
  • Variable at 2 KTS
Conditions
Drizzle
Cloud Levels
  • Few at 3,000' AGL
  • Broken at 5,000' AGL

Apr-23@
03:00 UTC

Apr-23 @ 03:00 UTC

Apr-23@
12:00 UTC

Apr-23 @ 12:00 UTC

TEMPO 2303/2312 4000 RA

Temporary

Temporary Changes expected for less than half the time period

Conditions
Rain